Drummond Island, MI (49726)

7:27 AM EDT on July 28, 2016 (GMT -0400)
Potagannissing Bay Front | | Change Station

Elev 587 ft 46.06 °N, 83.67 °W | Updated 25 seconds ago

Mostly Cloudy
Mostly Cloudy
64.3 °F
Feels Like 64.3 °F
N
1.0
Wind Variable Wind from NW
Gusts 7.0 mph

Today
High -- | Low -- °F
--% Chance of Precip.
Yesterday
High -- | Low -- °F
Precip. -- in
Pressure 29.99 in
Visibility 10.0 miles
Clouds Mostly Cloudy 10000 ft
Mostly Cloudy 12000 ft
Dew Point 62 °F
Humidity 92%
Rainfall 0.05 in
Snow Depth Not available.
6:13 AM 9:08 PM
Waning Crescent, 33% visible
METAR KDRM 281114Z AUTO 00000KT 10SM BKN100 BKN120 17/17 A2999 RMK AO2 T01680165
Pressure 29.99 in
Visibility 10.0 miles
Clouds Mostly Cloudy 10000 ft
Mostly Cloudy 12000 ft
Dew Point 62 °F
Humidity 92%
Rainfall 0.05 in
Snow Depth Not available.
6:13 AM 9:08 PM
Waning Crescent, 33% visible
METAR KDRM 281114Z AUTO 00000KT 10SM BKN100 BKN120 17/17 A2999 RMK AO2 T01680165

10-Day Weather Forecast

Almanac

Astronomy

Jul. 28, 2016 Rise Set
Actual Time
Civil Twilight
Nautical Twilight
Astronomical Twilight
Moon
Length of Visible Light
Length of Day
Tomorrow will be .
, % of the Moon is Illuminated

Today's Extremes

State Highs State Lows

Community

WunderPhotos

Upload Photos

1,928,083 photos uploaded!

WunderBlog® & News

Nearby

Air Quality

  Air Quality AQ Index Pollutant
Not available.

Snow Depth

Station Depth Elevation

Earthquake Activity

City Distance Mag. Time & Date
Minimum magnitude displayed is 2.5.

Coastal Water Temperatures

Place Temperature

Stations

Nearby Weather Stations

Station Location Temp. Windchill Dew Point Humidity Wind Precip. Elev Updated Type
                   

Watches & Warnings

There are currently no watches in effect.